Estación meteorológica de Montseny - Vallcàrquera (Vallès Oriental, Parc Natural del Montseny)

Consulta los datos en tiempo real de la estación meteorológica de Montseny - Vallcàrquera





Hora UTC 14:10
Temperatura 15.9 ºC
Humedad 72.9 %
Pluja 0.0 mm
Velocidad viento 6.8 km/h
Dirección viento E
Radiación solar 31.3 W/m²

Datos diarios 2026-05-09



Hora UTC (invierno +1h; verano +2h)
Temperatura (ºC) Humedad (%) Velocidad viento (km/h) Precipitación (mm) Radiación solar (W/m²)
Hora UTC Aire Humedad Vel. Dir. Vel. Max Dir. Intent. máx 5 min. Rad. Sol.
00:05 10.9 90.1 0.0 NNE 0.0 ENE 0.0 0.0
00:10 10.9 89.7 0.0 NNE 0.0 ENE 0.0 0.2
00:15 11.0 89.9 0.1 ENE 2.5 ENE 0.0 0.0
00:20 11.0 90.0 1.2 NE 2.5 ENE 0.0 0.1
00:25 11.0 89.8 0.1 SSE 1.8 SSE 0.0 0.1
00:30 11.1 90.1 0.9 NNE 2.1 N 0.0 0.1
00:35 11.2 89.8 0.0 NNE 0.4 NNE 0.0 0.0
00:40 11.2 89.6 0.5 N 2.1 N 0.0 0.1
00:45 11.3 88.9 0.7 N 2.5 N 0.0 0.4
00:50 11.3 89.4 0.1 SW 1.8 SW 0.0 0.0
00:55 11.2 89.6 0.0 NNE 0.0 WSW 0.0 0.0
01:00 11.2 90.0 0.3 NNW 1.4 NNW 0.0 0.0
01:05 11.2 89.8 0.7 NNW 2.8 SSW 0.0 0.0
01:10 11.2 90.4 0.3 ESE 1.4 E 0.0 0.0
01:15 11.1 90.9 1.0 E 2.1 E 0.0 0.0
01:20 11.1 90.7 1.5 NE 3.9 ENE 0.0 0.0
01:25 11.2 90.2 0.3 NNE 2.1 N 0.0 0.0
01:30 11.2 90.1 0.0 NNE 0.0 NNE 0.0 0.0
01:35 11.2 90.3 1.8 N 2.5 N 0.0 0.0
01:40 11.1 90.1 1.2 SW 3.9 SSW 0.0 0.0
01:45 10.9 90.1 0.1 SSE 2.1 SSE 0.0 0.0
01:50 10.8 90.4 0.6 N 1.8 N 0.0 0.0
01:55 10.8 90.5 0.3 N 1.4 N 0.0 0.0
02:00 10.8 90.8 1.9 ENE 4.2 ENE 0.0 0.0
02:05 10.7 91.5 0.2 NNE 1.8 ENE 0.0 0.0
02:10 10.7 91.3 0.8 N 2.1 N 0.0 0.0
02:15 10.7 91.5 0.7 N 1.8 N 0.0 0.0
02:20 10.6 91.4 0.0 NNE 0.0 N 0.0 0.0
02:25 10.5 91.9 1.3 NNW 2.8 NNW 0.0 0.0
02:30 10.3 92.2 1.4 NNW 2.1 NNW 0.0 0.0
02:35 10.2 92.3 0.4 NNE 1.8 NNE 0.0 0.0
02:40 10.2 92.7 1.1 NNW 1.8 NNW 0.0 0.0
02:45 10.0 92.6 0.4 NNW 1.4 NNW 0.0 0.0
02:50 9.9 93.2 1.3 N 2.5 N 0.0 0.0
02:55 9.9 93.4 0.7 NE 1.8 NE 0.0 0.0
03:00 9.8 93.7 1.2 N 2.1 N 0.0 0.0
03:05 9.8 93.8 0.2 N 1.4 N 0.0 0.0
03:10 9.8 93.9 0.6 N 1.8 N 0.0 0.0
03:15 9.9 94.0 0.2 NNE 1.1 N 0.0 0.1
03:20 10.0 94.1 0.7 NE 1.8 NE 0.0 0.1
03:25 10.1 94.1 0.4 NNE 1.8 NE 0.0 0.3
03:30 10.3 93.6 1.5 ENE 3.5 ENE 0.0 0.1
03:35 10.4 92.7 0.0 NNE 0.0 NE 0.0 0.0
03:40 10.4 92.8 0.2 N 1.4 N 0.0 0.0
03:45 10.4 93.0 0.4 N 1.4 N 0.0 0.0
03:50 10.5 93.1 0.7 ENE 3.2 ENE 0.0 0.0
03:55 10.5 92.7 1.3 ENE 2.5 NE 0.0 0.0
04:00 10.5 92.1 0.5 NNE 1.4 ENE 0.0 0.3
04:05 10.6 92.1 0.0 NNW 0.7 NNW 0.0 0.1
04:10 10.6 92.5 0.0 NNE 0.0 NNW 0.0 0.0
04:15 10.6 92.7 0.8 NE 2.1 NE 0.0 0.0
04:20 10.6 92.4 2.0 NE 3.2 ENE 0.0 0.0
04:25 10.6 91.7 0.8 NE 2.8 ENE 0.0 0.3
04:30 10.6 91.1 0.6 N 2.5 N 0.0 1.3
04:35 10.6 91.4 0.0 NNE 0.0 N 0.0 0.7
04:40 10.6 91.9 0.3 ENE 1.4 ENE 0.0 0.8
04:45 10.5 91.6 0.5 ENE 2.1 ENE 0.0 1.8
04:50 10.6 91.4 0.3 NNW 1.4 NNW 0.0 3.2
04:55 10.6 91.3 0.3 NE 2.8 ENE 0.0 5.3
05:00 10.6 91.7 1.5 ENE 2.8 ENE 0.0 8.0
05:05 10.7 91.1 0.5 NE 2.1 NE 0.0 11.2
05:10 10.8 91.3 0.2 ENE 2.1 ENE 0.0 14.2
05:15 10.8 91.1 1.3 E 3.9 E 0.0 15.8
05:20 10.9 90.3 1.2 NE 2.5 NE 0.0 15.4
05:25 11.0 90.4 0.2 NE 2.1 ENE 0.0 18.0
05:30 11.1 90.3 2.0 ENE 3.9 ESE 0.0 19.5
05:35 11.1 90.0 0.4 ENE 2.5 ENE 0.0 19.3
05:40 11.2 90.6 0.0 NNE 0.0 ENE 0.0 21.8
05:45 11.3 90.4 0.0 NNE 0.0 E 0.0 26.3
05:50 11.4 90.6 0.0 N 0.4 N 0.0 36.3
05:55 11.6 90.9 0.0 NNE 0.0 N 0.0 71.1
06:00 11.7 90.9 1.1 ENE 2.1 E 0.0 85.8
06:05 11.7 89.8 0.6 ENE 2.5 ENE 0.0 93.7
06:10 11.8 88.7 0.6 NE 2.5 NE 0.0 102.5
06:15 12.0 88.4 0.1 SE 1.4 SSE 0.0 103.9
06:20 12.3 88.4 0.9 E 2.5 ENE 0.0 103.9
06:25 12.4 85.4 0.4 NE 1.8 NNE 0.0 105.5
06:30 12.6 84.0 0.9 E 3.2 ENE 0.0 120.0
06:35 12.7 82.1 1.1 ENE 2.8 ESE 0.0 137.6
06:40 13.0 81.8 0.5 SSE 1.8 SE 0.0 187.5
06:45 13.3 80.8 0.1 S 1.1 S 0.0 195.9
06:50 13.5 79.4 1.0 S 2.5 SSW 0.0 206.7
06:55 13.5 80.7 1.6 S 3.5 S 0.0 196.8
07:00 13.7 79.3 1.6 SSW 3.5 WNW 0.0 219.9
07:05 13.8 77.9 1.9 SW 3.9 SSW 0.0 228.7
07:10 14.0 77.8 1.7 SSW 5.3 SSW 0.0 242.3
07:15 14.1 77.3 1.8 SW 5.6 S 0.0 250.8
07:20 14.3 77.5 1.8 SSW 5.3 SSW 0.0 262.5
07:25 14.5 76.6 3.4 SSW 6.7 S 0.0 291.7
07:30 14.5 76.7 2.1 SSW 6.4 SSW 0.0 289.9
07:35 14.8 76.2 1.2 SW 4.2 SSW 0.0 309.5
07:40 14.8 75.6 3.0 SSW 6.4 SSW 0.0 337.8
07:45 15.0 75.8 2.1 SSW 6.0 SSW 0.0 375.9
07:50 15.3 74.6 2.4 SSW 6.0 S 0.0 369.1
07:55 15.3 74.1 3.4 SW 7.4 SSW 0.0 359.9
08:00 15.4 73.5 3.9 SSW 9.5 SSW 0.0 441.8
08:05 15.6 72.9 4.1 SSW 9.9 SSW 0.0 436.7
08:10 15.7 72.1 4.4 SSW 9.2 SW 0.0 454.5
08:15 15.8 72.2 4.7 SSW 10.9 SSW 0.0 448.6
08:20 16.0 70.7 3.9 SW 8.8 SSE 0.0 499.0
08:25 16.3 70.3 3.5 SW 7.8 SW 0.0 450.7
08:30 16.4 69.7 3.9 SW 7.8 SW 0.0 421.6
08:35 16.5 69.7 4.6 SW 9.5 S 0.0 400.7
08:40 16.3 70.1 4.6 SSW 10.9 S 0.0 416.5
08:45 16.5 70.2 3.7 SW 8.1 SSW 0.0 432.8
08:50 16.6 68.8 4.0 SSW 8.5 SSW 0.0 362.3
08:55 16.5 70.2 3.0 SSW 9.5 S 0.0 280.6
09:00 16.6 69.4 1.6 ESE 3.9 E 0.0 309.2
09:05 16.8 68.9 2.7 SSW 6.7 S 0.0 328.4
09:10 16.8 68.7 1.7 SW 4.6 WSW 0.0 312.3
09:15 17.0 69.2 2.4 SSW 5.3 SSW 0.0 341.0
09:20 17.1 68.9 3.6 SSW 8.5 S 0.0 463.6
09:25 17.6 67.5 2.5 SSW 6.0 SW 0.0 669.7
09:30 18.2 64.0 2.9 SW 5.6 S 0.0 652.5
09:35 18.1 63.8 2.5 SW 4.9 NNW 0.0 504.5
09:40 18.0 65.7 3.6 SSW 8.8 SW 0.0 398.6
09:45 18.0 65.6 3.5 SW 7.8 WSW 0.0 279.0
09:50 17.7 67.1 3.1 SW 7.8 SSW 0.0 343.3
09:55 17.7 67.5 3.3 SW 8.8 SSW 0.0 348.8
10:00 17.7 66.8 1.9 S 5.6 SSW 0.0 378.2
10:05 17.6 66.6 4.7 ENE 14.1 ENE 0.0 381.1
10:10 17.4 67.3 5.9 E 15.9 ENE 0.0 406.0
10:15 17.8 66.6 3.6 E 12.7 ENE 0.0 502.5
10:20 18.0 64.5 3.4 ESE 10.6 SE 0.0 456.7
10:25 18.0 64.4 3.5 E 7.4 E 0.0 435.3
10:30 18.1 62.0 3.2 ENE 11.3 ENE 0.0 427.6
10:35 18.0 62.6 5.0 E 13.1 SE 0.0 390.5
10:40 17.8 63.7 4.0 E 15.2 ESE 0.0 423.2
10:45 17.8 63.8 5.0 ESE 18.0 E 0.0 488.6
10:50 18.1 65.2 2.8 ESE 9.2 S 0.0 470.8
10:55 18.4 63.2 2.3 ESE 7.1 ESE 0.0 426.3
11:00 18.6 63.2 4.0 SSE 13.8 SW 0.0 488.0
11:05 18.4 61.2 3.8 NE 13.8 NE 0.0 476.6
11:10 17.7 64.0 6.7 ENE 14.1 ESE 0.0 372.5
11:15 17.4 66.6 6.5 E 18.0 ESE 0.0 336.0
11:20 17.1 68.5 5.4 E 15.9 ENE 0.0 255.8
11:25 16.8 69.5 6.2 E 14.1 ESE 0.0 221.3
11:30 16.5 70.3 8.2 E 19.4 ENE 0.0 186.0
11:35 16.3 71.3 5.9 E 15.5 SSE 0.0 140.4
11:40 16.3 71.4 5.2 E 11.3 ENE 0.0 107.9
11:45 16.2 70.6 5.0 E 19.4 ESE 0.0 98.1
11:50 16.1 71.0 4.0 E 11.6 ENE 0.0 98.4
11:55 16.2 70.8 3.1 E 15.5 ENE 0.0 128.0
12:00 16.2 70.0 3.4 ESE 11.6 SE 0.0 165.9
12:05 16.4 68.8 5.1 E 10.9 E 0.0 238.2
12:10 16.6 68.3 4.4 E 12.0 ENE 0.0 291.5
12:15 16.8 67.8 3.5 E 10.6 ENE 0.0 275.2
12:20 16.9 68.4 2.8 E 8.8 ENE 0.0 222.7
12:25 16.9 67.7 2.7 ESE 8.1 SSW 0.0 203.7
12:30 16.8 66.2 5.8 ESE 15.2 ESE 0.0 202.8
12:35 16.6 66.3 4.2 ESE 13.4 E 0.0 182.7
12:40 16.6 65.8 2.0 ESE 10.2 E 0.0 163.3
12:45 16.6 65.9 3.5 E 7.4 E 0.0 149.7
12:50 16.6 65.5 3.1 ENE 8.8 ENE 0.0 141.8
12:55 16.6 65.9 3.0 ENE 10.9 ENE 0.0 140.9
13:00 16.6 66.7 2.0 ESE 4.9 ESE 0.0 121.8
13:05 16.5 66.6 2.6 ESE 7.1 SE 0.0 103.7
13:10 16.5 67.3 2.0 SE 6.7 ESE 0.0 98.1
13:15 16.6 67.9 1.4 SSE 4.6 E 0.0 115.7
13:20 16.7 68.7 1.4 SW 3.5 SSW 0.0 135.8
13:25 16.8 67.6 0.2 SE 3.5 S 0.0 125.1
13:30 16.9 66.9 1.0 SE 3.5 E 0.0 104.7
13:35 16.8 68.2 1.0 NNE 3.5 ENE 0.0 92.0
13:40 16.8 67.5 0.8 SSW 3.5 S 0.0 88.4
13:45 16.8 67.3 0.3 SW 1.8 SW 0.0 85.8
13:50 16.7 66.5 0.4 W 3.2 WNW 0.0 63.1
13:55 16.7 67.0 0.7 NNW 2.8 N 0.0 51.2
14:00 16.6 68.3 1.3 E 3.5 E 0.0 48.4
14:05 16.3 71.2 3.4 E 10.2 E 0.0 43.5
14:10 15.9 72.9 6.8 E 16.2 ENE 0.0 31.3
Máxima 18.6 94.1 8.2 E 19.4 ESE 0.0 669.7
Mínima 9.8 61.2
Total 0.0